Graneros, Argentina
Current Conditions -  °F | °C
As of 9:00 AM on Sunday 21 Dec 2014 (Local Time) from SANT Reporting Station
Drizzle Drizzle  
Wind Chill: 15°   Ceiling: 500
Heat Index: 15°   Visibility: 4mi
Dew Point: 14°   Wind: 7mph
Humidity: 94%   Direction: 140°SE
Pressure: 29.97"   Gusts: NA
Location:  27.65°S, 65.44°W
Report Text: SANT 211200Z 14006KT 6000 -DZ BKN005 OVC040 15/14 Q1015
Loading
Personal Weather Stations






























Interactive Weather Map New forecast layout! Learn more

10-Day Weather Forecast

Advertisements
Track Severe Weather on mobile